sensor_id;sensor_type;location;lat;lon;timestamp;P1;durP1;ratioP1;P2;durP2;ratioP2
76795;SDS011;65745;50.278;18.192;2023-08-06T00:00:13;6.50;;;5.70;;
76795;SDS011;65745;50.278;18.192;2023-08-06T00:03:06;6.70;;;5.90;;
76795;SDS011;65745;50.278;18.192;2023-08-06T00:05:38;7.00;;;5.90;;
76795;SDS011;65745;50.278;18.192;2023-08-06T00:08:13;7.00;;;6.40;;
76795;SDS011;65745;50.278;18.192;2023-08-06T00:10:46;6.70;;;6.10;;
76795;SDS011;65745;50.278;18.192;2023-08-06T00:13:19;7.10;;;6.40;;
76795;SDS011;65745;50.278;18.192;2023-08-06T00:15:51;8.00;;;6.80;;
76795;SDS011;65745;50.278;18.192;2023-08-06T00:18:23;7.80;;;7.10;;
76795;SDS011;65745;50.278;18.192;2023-08-06T00:20:55;7.10;;;6.20;;
76795;SDS011;65745;50.278;18.192;2023-08-06T00:23:27;7.70;;;6.10;;
76795;SDS011;65745;50.278;18.192;2023-08-06T00:25:59;6.70;;;6.10;;
76795;SDS011;65745;50.278;18.192;2023-08-06T00:28:31;6.10;;;5.50;;
76795;SDS011;65745;50.278;18.192;2023-08-06T00:31:03;6.60;;;6.00;;
76795;SDS011;65745;50.278;18.192;2023-08-06T00:33:35;5.90;;;5.40;;
76795;SDS011;65745;50.278;18.192;2023-08-06T00:36:07;5.90;;;5.20;;
76795;SDS011;65745;50.278;18.192;2023-08-06T00:38:39;5.60;;;5.10;;
76795;SDS011;65745;50.278;18.192;2023-08-06T00:41:11;5.10;;;4.40;;
76795;SDS011;65745;50.278;18.192;2023-08-06T00:43:43;5.10;;;4.70;;
76795;SDS011;65745;50.278;18.192;2023-08-06T00:46:15;4.30;;;3.90;;
76795;SDS011;65745;50.278;18.192;2023-08-06T00:48:48;3.50;;;3.10;;
76795;SDS011;65745;50.278;18.192;2023-08-06T00:51:21;3.30;;;3.00;;
76795;SDS011;65745;50.278;18.192;2023-08-06T00:53:55;3.30;;;2.60;;
76795;SDS011;65745;50.278;18.192;2023-08-06T00:56:28;3.00;;;2.60;;
76795;SDS011;65745;50.278;18.192;2023-08-06T00:59:01;3.20;;;2.70;;
76795;SDS011;65745;50.278;18.192;2023-08-06T01:01:33;4.00;;;3.50;;
76795;SDS011;65745;50.278;18.192;2023-08-06T01:04:05;4.30;;;3.00;;
76795;SDS011;65745;50.278;18.192;2023-08-06T01:06:39;3.40;;;2.60;;
76795;SDS011;65745;50.278;18.192;2023-08-06T01:09:21;3.70;;;2.50;;
76795;SDS011;65745;50.278;18.192;2023-08-06T01:12:04;3.70;;;2.40;;
76795;SDS011;65745;50.278;18.192;2023-08-06T01:14:45;3.00;;;2.40;;
76795;SDS011;65745;50.278;18.192;2023-08-06T01:17:21;3.80;;;2.30;;
76795;SDS011;65745;50.278;18.192;2023-08-06T01:19:55;2.50;;;2.30;;
76795;SDS011;65745;50.278;18.192;2023-08-06T01:22:27;3.20;;;2.90;;
76795;SDS011;65745;50.278;18.192;2023-08-06T01:24:59;3.20;;;2.30;;
76795;SDS011;65745;50.278;18.192;2023-08-06T01:27:33;3.00;;;2.40;;
76795;SDS011;65745;50.278;18.192;2023-08-06T01:30:11;2.10;;;1.90;;
76795;SDS011;65745;50.278;18.192;2023-08-06T01:32:48;2.00;;;1.80;;
76795;SDS011;65745;50.278;18.192;2023-08-06T01:35:24;2.20;;;2.00;;
76795;SDS011;65745;50.278;18.192;2023-08-06T01:38:00;2.50;;;2.30;;
76795;SDS011;65745;50.278;18.192;2023-08-06T01:40:35;3.90;;;2.60;;
76795;SDS011;65745;50.278;18.192;2023-08-06T01:43:07;4.20;;;3.30;;
76795;SDS011;65745;50.278;18.192;2023-08-06T01:45:40;4.80;;;3.90;;
76795;SDS011;65745;50.278;18.192;2023-08-06T01:48:12;4.10;;;3.70;;
76795;SDS011;65745;50.278;18.192;2023-08-06T01:50:44;3.80;;;3.30;;
76795;SDS011;65745;50.278;18.192;2023-08-06T01:53:16;3.70;;;3.20;;
76795;SDS011;65745;50.278;18.192;2023-08-06T01:55:49;3.50;;;3.20;;
76795;SDS011;65745;50.278;18.192;2023-08-06T01:58:21;3.00;;;2.70;;
76795;SDS011;65745;50.278;18.192;2023-08-06T02:00:53;3.00;;;2.80;;
76795;SDS011;65745;50.278;18.192;2023-08-06T02:03:26;2.60;;;2.40;;
76795;SDS011;65745;50.278;18.192;2023-08-06T02:05:58;2.50;;;2.20;;
76795;SDS011;65745;50.278;18.192;2023-08-06T02:08:30;2.30;;;2.10;;
76795;SDS011;65745;50.278;18.192;2023-08-06T02:11:02;2.40;;;1.90;;
76795;SDS011;65745;50.278;18.192;2023-08-06T02:13:34;1.90;;;1.70;;
76795;SDS011;65745;50.278;18.192;2023-08-06T02:16:07;2.50;;;1.90;;
76795;SDS011;65745;50.278;18.192;2023-08-06T02:18:40;2.00;;;1.80;;
76795;SDS011;65745;50.278;18.192;2023-08-06T02:21:12;3.40;;;1.80;;
76795;SDS011;65745;50.278;18.192;2023-08-06T02:23:44;2.70;;;1.90;;
76795;SDS011;65745;50.278;18.192;2023-08-06T02:26:15;2.50;;;1.60;;
76795;SDS011;65745;50.278;18.192;2023-08-06T02:28:47;1.70;;;1.40;;
76795;SDS011;65745;50.278;18.192;2023-08-06T02:31:19;1.60;;;1.30;;
76795;SDS011;65745;50.278;18.192;2023-08-06T02:33:52;2.00;;;1.60;;
76795;SDS011;65745;50.278;18.192;2023-08-06T02:36:24;1.60;;;1.30;;
76795;SDS011;65745;50.278;18.192;2023-08-06T02:39:00;2.10;;;1.60;;
76795;SDS011;65745;50.278;18.192;2023-08-06T02:41:32;1.50;;;1.30;;
76795;SDS011;65745;50.278;18.192;2023-08-06T02:44:04;2.80;;;1.40;;
76795;SDS011;65745;50.278;18.192;2023-08-06T02:46:36;2.80;;;1.50;;
76795;SDS011;65745;50.278;18.192;2023-08-06T02:49:08;1.50;;;1.30;;
76795;SDS011;65745;50.278;18.192;2023-08-06T02:51:40;3.20;;;1.70;;
76795;SDS011;65745;50.278;18.192;2023-08-06T02:54:14;1.90;;;1.50;;
76795;SDS011;65745;50.278;18.192;2023-08-06T02:56:47;2.00;;;1.40;;
76795;SDS011;65745;50.278;18.192;2023-08-06T02:59:25;1.30;;;1.20;;
76795;SDS011;65745;50.278;18.192;2023-08-06T03:02:09;1.40;;;1.20;;
76795;SDS011;65745;50.278;18.192;2023-08-06T03:04:57;1.20;;;1.10;;
76795;SDS011;65745;50.278;18.192;2023-08-06T03:07:33;0.80;;;0.80;;
76795;SDS011;65745;50.278;18.192;2023-08-06T03:10:15;2.10;;;1.20;;
76795;SDS011;65745;50.278;18.192;2023-08-06T03:12:47;1.50;;;0.90;;
76795;SDS011;65745;50.278;18.192;2023-08-06T03:15:19;1.10;;;1.00;;
76795;SDS011;65745;50.278;18.192;2023-08-06T03:17:52;1.00;;;0.90;;
76795;SDS011;65745;50.278;18.192;2023-08-06T03:20:27;1.10;;;1.00;;
76795;SDS011;65745;50.278;18.192;2023-08-06T03:23:00;1.10;;;1.00;;
76795;SDS011;65745;50.278;18.192;2023-08-06T03:25:34;1.10;;;0.90;;
76795;SDS011;65745;50.278;18.192;2023-08-06T03:28:07;1.00;;;0.80;;
76795;SDS011;65745;50.278;18.192;2023-08-06T03:30:39;0.80;;;0.80;;
76795;SDS011;65745;50.278;18.192;2023-08-06T03:33:12;1.10;;;1.00;;
76795;SDS011;65745;50.278;18.192;2023-08-06T03:35:45;1.00;;;0.70;;
76795;SDS011;65745;50.278;18.192;2023-08-06T03:38:18;0.70;;;0.60;;
76795;SDS011;65745;50.278;18.192;2023-08-06T03:40:50;0.90;;;0.60;;
76795;SDS011;65745;50.278;18.192;2023-08-06T03:43:22;0.60;;;0.60;;
76795;SDS011;65745;50.278;18.192;2023-08-06T03:45:54;0.80;;;0.60;;
76795;SDS011;65745;50.278;18.192;2023-08-06T03:48:26;0.70;;;0.50;;
76795;SDS011;65745;50.278;18.192;2023-08-06T03:50:58;0.60;;;0.60;;
76795;SDS011;65745;50.278;18.192;2023-08-06T03:53:31;0.50;;;0.50;;
76795;SDS011;65745;50.278;18.192;2023-08-06T03:56:04;0.20;;;0.20;;
76795;SDS011;65745;50.278;18.192;2023-08-06T03:58:36;0.20;;;0.20;;
76795;SDS011;65745;50.278;18.192;2023-08-06T04:01:09;1.00;;;0.30;;
76795;SDS011;65745;50.278;18.192;2023-08-06T04:03:46;1.10;;;0.50;;
76795;SDS011;65745;50.278;18.192;2023-08-06T04:06:18;0.90;;;0.40;;
76795;SDS011;65745;50.278;18.192;2023-08-06T04:08:50;0.40;;;0.30;;
76795;SDS011;65745;50.278;18.192;2023-08-06T04:11:22;0.60;;;0.40;;
76795;SDS011;65745;50.278;18.192;2023-08-06T04:13:54;0.30;;;0.30;;
76795;SDS011;65745;50.278;18.192;2023-08-06T04:16:26;1.20;;;0.30;;
76795;SDS011;65745;50.278;18.192;2023-08-06T04:18:58;0.20;;;0.20;;
76795;SDS011;65745;50.278;18.192;2023-08-06T04:21:30;0.40;;;0.40;;
76795;SDS011;65745;50.278;18.192;2023-08-06T04:24:02;0.30;;;0.30;;
76795;SDS011;65745;50.278;18.192;2023-08-06T04:26:35;0.90;;;0.40;;
76795;SDS011;65745;50.278;18.192;2023-08-06T04:29:07;0.40;;;0.30;;
76795;SDS011;65745;50.278;18.192;2023-08-06T04:31:39;0.30;;;0.30;;
76795;SDS011;65745;50.278;18.192;2023-08-06T04:34:11;0.30;;;0.30;;
76795;SDS011;65745;50.278;18.192;2023-08-06T04:36:43;0.80;;;0.80;;
76795;SDS011;65745;50.278;18.192;2023-08-06T04:39:15;0.60;;;0.40;;
76795;SDS011;65745;50.278;18.192;2023-08-06T04:41:47;0.40;;;0.30;;
76795;SDS011;65745;50.278;18.192;2023-08-06T04:44:20;0.70;;;0.40;;
76795;SDS011;65745;50.278;18.192;2023-08-06T04:46:52;0.90;;;0.50;;
76795;SDS011;65745;50.278;18.192;2023-08-06T04:49:24;3.30;;;1.20;;
76795;SDS011;65745;50.278;18.192;2023-08-06T04:51:56;0.90;;;0.40;;
76795;SDS011;65745;50.278;18.192;2023-08-06T04:54:28;1.50;;;0.60;;
76795;SDS011;65745;50.278;18.192;2023-08-06T04:57:00;2.60;;;0.90;;
76795;SDS011;65745;50.278;18.192;2023-08-06T04:59:32;0.50;;;0.30;;
76795;SDS011;65745;50.278;18.192;2023-08-06T05:02:05;0.70;;;0.70;;
76795;SDS011;65745;50.278;18.192;2023-08-06T05:04:37;1.80;;;0.30;;
76795;SDS011;65745;50.278;18.192;2023-08-06T05:07:10;0.40;;;0.30;;
76795;SDS011;65745;50.278;18.192;2023-08-06T05:09:42;0.30;;;0.30;;
76795;SDS011;65745;50.278;18.192;2023-08-06T05:12:14;0.20;;;0.20;;
76795;SDS011;65745;50.278;18.192;2023-08-06T05:14:46;0.40;;;0.20;;
76795;SDS011;65745;50.278;18.192;2023-08-06T05:17:18;0.60;;;0.60;;
76795;SDS011;65745;50.278;18.192;2023-08-06T05:19:52;0.30;;;0.30;;
76795;SDS011;65745;50.278;18.192;2023-08-06T05:22:24;0.50;;;0.50;;
76795;SDS011;65745;50.278;18.192;2023-08-06T05:24:55;1.00;;;0.40;;
76795;SDS011;65745;50.278;18.192;2023-08-06T05:27:27;0.40;;;0.40;;
76795;SDS011;65745;50.278;18.192;2023-08-06T05:29:59;2.10;;;0.80;;
76795;SDS011;65745;50.278;18.192;2023-08-06T05:32:31;0.20;;;0.20;;
76795;SDS011;65745;50.278;18.192;2023-08-06T05:35:04;1.00;;;0.50;;
76795;SDS011;65745;50.278;18.192;2023-08-06T05:37:36;0.30;;;0.30;;
76795;SDS011;65745;50.278;18.192;2023-08-06T05:40:09;0.60;;;0.40;;
76795;SDS011;65745;50.278;18.192;2023-08-06T05:42:41;0.20;;;0.20;;
76795;SDS011;65745;50.278;18.192;2023-08-06T05:45:13;0.40;;;0.40;;
76795;SDS011;65745;50.278;18.192;2023-08-06T05:47:46;0.30;;;0.30;;
76795;SDS011;65745;50.278;18.192;2023-08-06T05:50:19;0.10;;;0.10;;
76795;SDS011;65745;50.278;18.192;2023-08-06T05:52:51;0.30;;;0.20;;
76795;SDS011;65745;50.278;18.192;2023-08-06T05:55:23;0.40;;;0.30;;
76795;SDS011;65745;50.278;18.192;2023-08-06T05:57:55;0.30;;;0.30;;
76795;SDS011;65745;50.278;18.192;2023-08-06T06:00:27;0.30;;;0.30;;
76795;SDS011;65745;50.278;18.192;2023-08-06T06:02:59;0.20;;;0.20;;
76795;SDS011;65745;50.278;18.192;2023-08-06T06:05:32;0.40;;;0.40;;
76795;SDS011;65745;50.278;18.192;2023-08-06T06:08:04;0.90;;;0.30;;
76795;SDS011;65745;50.278;18.192;2023-08-06T06:10:36;0.20;;;0.20;;
76795;SDS011;65745;50.278;18.192;2023-08-06T06:13:08;0.50;;;0.40;;
76795;SDS011;65745;50.278;18.192;2023-08-06T06:15:40;0.30;;;0.30;;
76795;SDS011;65745;50.278;18.192;2023-08-06T06:18:12;1.00;;;0.40;;
76795;SDS011;65745;50.278;18.192;2023-08-06T06:20:44;1.70;;;0.50;;
76795;SDS011;65745;50.278;18.192;2023-08-06T06:23:16;0.50;;;0.50;;
76795;SDS011;65745;50.278;18.192;2023-08-06T06:25:49;0.50;;;0.50;;
76795;SDS011;65745;50.278;18.192;2023-08-06T06:28:21;0.20;;;0.20;;
76795;SDS011;65745;50.278;18.192;2023-08-06T06:30:53;0.50;;;0.40;;
76795;SDS011;65745;50.278;18.192;2023-08-06T06:33:30;1.20;;;0.50;;
76795;SDS011;65745;50.278;18.192;2023-08-06T06:36:02;0.30;;;0.20;;
76795;SDS011;65745;50.278;18.192;2023-08-06T06:38:36;0.50;;;0.40;;
76795;SDS011;65745;50.278;18.192;2023-08-06T06:41:08;0.50;;;0.50;;
76795;SDS011;65745;50.278;18.192;2023-08-06T06:43:40;1.20;;;0.50;;
76795;SDS011;65745;50.278;18.192;2023-08-06T06:46:12;0.40;;;0.30;;
76795;SDS011;65745;50.278;18.192;2023-08-06T06:48:44;0.40;;;0.40;;
76795;SDS011;65745;50.278;18.192;2023-08-06T06:51:16;2.10;;;0.60;;
76795;SDS011;65745;50.278;18.192;2023-08-06T06:53:48;1.30;;;0.30;;
76795;SDS011;65745;50.278;18.192;2023-08-06T06:56:20;0.40;;;0.40;;
76795;SDS011;65745;50.278;18.192;2023-08-06T06:58:52;0.40;;;0.40;;
76795;SDS011;65745;50.278;18.192;2023-08-06T07:01:24;0.20;;;0.20;;
76795;SDS011;65745;50.278;18.192;2023-08-06T07:03:56;0.50;;;0.20;;
76795;SDS011;65745;50.278;18.192;2023-08-06T07:06:33;0.50;;;0.50;;
76795;SDS011;65745;50.278;18.192;2023-08-06T07:09:05;0.30;;;0.30;;
76795;SDS011;65745;50.278;18.192;2023-08-06T07:11:37;0.30;;;0.30;;
76795;SDS011;65745;50.278;18.192;2023-08-06T07:14:12;0.50;;;0.50;;
76795;SDS011;65745;50.278;18.192;2023-08-06T07:16:44;0.40;;;0.40;;
76795;SDS011;65745;50.278;18.192;2023-08-06T07:19:16;0.40;;;0.40;;
76795;SDS011;65745;50.278;18.192;2023-08-06T07:21:48;0.30;;;0.30;;
76795;SDS011;65745;50.278;18.192;2023-08-06T07:24:21;0.50;;;0.40;;
76795;SDS011;65745;50.278;18.192;2023-08-06T07:26:53;0.30;;;0.30;;
76795;SDS011;65745;50.278;18.192;2023-08-06T07:29:25;0.40;;;0.20;;
76795;SDS011;65745;50.278;18.192;2023-08-06T07:31:57;0.50;;;0.50;;
76795;SDS011;65745;50.278;18.192;2023-08-06T07:34:29;0.60;;;0.60;;
76795;SDS011;65745;50.278;18.192;2023-08-06T07:37:01;0.70;;;0.50;;
76795;SDS011;65745;50.278;18.192;2023-08-06T07:39:33;0.90;;;0.40;;
76795;SDS011;65745;50.278;18.192;2023-08-06T07:42:07;0.20;;;0.20;;
76795;SDS011;65745;50.278;18.192;2023-08-06T07:44:40;0.90;;;0.40;;
76795;SDS011;65745;50.278;18.192;2023-08-06T07:47:12;0.40;;;0.30;;
76795;SDS011;65745;50.278;18.192;2023-08-06T07:49:44;0.30;;;0.30;;
76795;SDS011;65745;50.278;18.192;2023-08-06T07:52:16;0.40;;;0.40;;
76795;SDS011;65745;50.278;18.192;2023-08-06T07:54:48;0.40;;;0.40;;
76795;SDS011;65745;50.278;18.192;2023-08-06T07:57:20;0.70;;;0.70;;
76795;SDS011;65745;50.278;18.192;2023-08-06T07:59:52;0.50;;;0.40;;
76795;SDS011;65745;50.278;18.192;2023-08-06T08:02:24;0.60;;;0.50;;
76795;SDS011;65745;50.278;18.192;2023-08-06T08:04:57;1.30;;;0.50;;
76795;SDS011;65745;50.278;18.192;2023-08-06T08:07:29;0.80;;;0.80;;
76795;SDS011;65745;50.278;18.192;2023-08-06T08:10:01;0.50;;;0.50;;
76795;SDS011;65745;50.278;18.192;2023-08-06T08:12:34;0.40;;;0.40;;
76795;SDS011;65745;50.278;18.192;2023-08-06T08:15:07;0.50;;;0.50;;
76795;SDS011;65745;50.278;18.192;2023-08-06T08:17:39;0.50;;;0.30;;
76795;SDS011;65745;50.278;18.192;2023-08-06T08:20:11;0.70;;;0.40;;
76795;SDS011;65745;50.278;18.192;2023-08-06T08:22:45;0.20;;;0.20;;
76795;SDS011;65745;50.278;18.192;2023-08-06T08:25:17;0.10;;;0.10;;
76795;SDS011;65745;50.278;18.192;2023-08-06T08:27:49;0.70;;;0.40;;
76795;SDS011;65745;50.278;18.192;2023-08-06T08:30:21;0.50;;;0.50;;
76795;SDS011;65745;50.278;18.192;2023-08-06T08:32:54;0.80;;;0.70;;
76795;SDS011;65745;50.278;18.192;2023-08-06T08:35:26;2.10;;;1.60;;
76795;SDS011;65745;50.278;18.192;2023-08-06T08:37:59;0.70;;;0.60;;
76795;SDS011;65745;50.278;18.192;2023-08-06T08:40:31;1.00;;;0.60;;
76795;SDS011;65745;50.278;18.192;2023-08-06T08:43:07;0.60;;;0.50;;
76795;SDS011;65745;50.278;18.192;2023-08-06T08:45:42;0.90;;;0.60;;
76795;SDS011;65745;50.278;18.192;2023-08-06T08:48:19;0.80;;;0.30;;
76795;SDS011;65745;50.278;18.192;2023-08-06T08:50:52;0.80;;;0.70;;
76795;SDS011;65745;50.278;18.192;2023-08-06T08:53:25;0.40;;;0.40;;
76795;SDS011;65745;50.278;18.192;2023-08-06T08:55:58;0.30;;;0.30;;
76795;SDS011;65745;50.278;18.192;2023-08-06T08:58:32;0.80;;;0.50;;
76795;SDS011;65745;50.278;18.192;2023-08-06T09:01:04;1.70;;;0.70;;
76795;SDS011;65745;50.278;18.192;2023-08-06T09:03:37;0.40;;;0.40;;
76795;SDS011;65745;50.278;18.192;2023-08-06T09:06:09;1.40;;;0.60;;
76795;SDS011;65745;50.278;18.192;2023-08-06T09:08:43;1.70;;;0.60;;
76795;SDS011;65745;50.278;18.192;2023-08-06T09:11:21;0.90;;;0.60;;
76795;SDS011;65745;50.278;18.192;2023-08-06T09:13:53;1.30;;;0.60;;
76795;SDS011;65745;50.278;18.192;2023-08-06T09:16:27;0.50;;;0.40;;
76795;SDS011;65745;50.278;18.192;2023-08-06T09:19:02;1.10;;;0.70;;
76795;SDS011;65745;50.278;18.192;2023-08-06T09:21:39;0.90;;;0.60;;
76795;SDS011;65745;50.278;18.192;2023-08-06T09:24:12;1.40;;;0.40;;
76795;SDS011;65745;50.278;18.192;2023-08-06T09:26:44;0.60;;;0.30;;
76795;SDS011;65745;50.278;18.192;2023-08-06T09:29:16;0.90;;;0.60;;
76795;SDS011;65745;50.278;18.192;2023-08-06T09:31:49;0.60;;;0.60;;
76795;SDS011;65745;50.278;18.192;2023-08-06T09:34:22;0.40;;;0.40;;
76795;SDS011;65745;50.278;18.192;2023-08-06T09:36:54;0.70;;;0.50;;
76795;SDS011;65745;50.278;18.192;2023-08-06T09:39:28;0.90;;;0.60;;
76795;SDS011;65745;50.278;18.192;2023-08-06T09:42:01;0.90;;;0.50;;
76795;SDS011;65745;50.278;18.192;2023-08-06T09:44:33;0.40;;;0.40;;
76795;SDS011;65745;50.278;18.192;2023-08-06T09:47:07;0.60;;;0.60;;
76795;SDS011;65745;50.278;18.192;2023-08-06T09:49:42;0.80;;;0.50;;
76795;SDS011;65745;50.278;18.192;2023-08-06T09:52:14;0.50;;;0.50;;
76795;SDS011;65745;50.278;18.192;2023-08-06T09:54:47;0.60;;;0.60;;
76795;SDS011;65745;50.278;18.192;2023-08-06T09:57:21;0.60;;;0.60;;
76795;SDS011;65745;50.278;18.192;2023-08-06T09:59:54;1.10;;;0.60;;
76795;SDS011;65745;50.278;18.192;2023-08-06T10:02:26;0.60;;;0.50;;
76795;SDS011;65745;50.278;18.192;2023-08-06T10:04:59;0.70;;;0.70;;
76795;SDS011;65745;50.278;18.192;2023-08-06T10:07:32;0.60;;;0.60;;
76795;SDS011;65745;50.278;18.192;2023-08-06T10:10:06;0.50;;;0.50;;
76795;SDS011;65745;50.278;18.192;2023-08-06T10:12:41;0.70;;;0.60;;
76795;SDS011;65745;50.278;18.192;2023-08-06T10:15:17;1.30;;;0.80;;
76795;SDS011;65745;50.278;18.192;2023-08-06T10:17:55;0.60;;;0.60;;
76795;SDS011;65745;50.278;18.192;2023-08-06T10:20:34;1.70;;;0.70;;
76795;SDS011;65745;50.278;18.192;2023-08-06T10:23:06;0.70;;;0.70;;
76795;SDS011;65745;50.278;18.192;2023-08-06T10:25:41;0.40;;;0.40;;
76795;SDS011;65745;50.278;18.192;2023-08-06T10:28:13;1.10;;;0.50;;
76795;SDS011;65745;50.278;18.192;2023-08-06T10:30:47;0.50;;;0.50;;
76795;SDS011;65745;50.278;18.192;2023-08-06T10:33:21;0.50;;;0.50;;
76795;SDS011;65745;50.278;18.192;2023-08-06T10:35:53;0.50;;;0.50;;
76795;SDS011;65745;50.278;18.192;2023-08-06T10:38:44;0.40;;;0.40;;
76795;SDS011;65745;50.278;18.192;2023-08-06T10:41:21;1.30;;;0.70;;
76795;SDS011;65745;50.278;18.192;2023-08-06T10:44:06;0.70;;;0.60;;
76795;SDS011;65745;50.278;18.192;2023-08-06T10:46:39;0.80;;;0.80;;
76795;SDS011;65745;50.278;18.192;2023-08-06T10:49:11;0.50;;;0.50;;
76795;SDS011;65745;50.278;18.192;2023-08-06T10:51:47;1.10;;;1.00;;
76795;SDS011;65745;50.278;18.192;2023-08-06T10:54:20;0.90;;;0.60;;
76795;SDS011;65745;50.278;18.192;2023-08-06T10:56:52;1.00;;;0.80;;
76795;SDS011;65745;50.278;18.192;2023-08-06T10:59:24;1.20;;;0.60;;
76795;SDS011;65745;50.278;18.192;2023-08-06T11:01:56;1.10;;;0.90;;
76795;SDS011;65745;50.278;18.192;2023-08-06T11:04:31;1.90;;;0.80;;
76795;SDS011;65745;50.278;18.192;2023-08-06T11:07:06;0.60;;;0.60;;
76795;SDS011;65745;50.278;18.192;2023-08-06T11:09:38;0.60;;;0.60;;
76795;SDS011;65745;50.278;18.192;2023-08-06T11:12:11;0.80;;;0.70;;
76795;SDS011;65745;50.278;18.192;2023-08-06T11:14:51;0.80;;;0.60;;
76795;SDS011;65745;50.278;18.192;2023-08-06T11:17:23;1.00;;;0.70;;
76795;SDS011;65745;50.278;18.192;2023-08-06T11:19:58;3.80;;;1.10;;
76795;SDS011;65745;50.278;18.192;2023-08-06T11:22:31;0.60;;;0.60;;
76795;SDS011;65745;50.278;18.192;2023-08-06T11:25:04;0.70;;;0.70;;
76795;SDS011;65745;50.278;18.192;2023-08-06T11:27:37;0.60;;;0.60;;
76795;SDS011;65745;50.278;18.192;2023-08-06T11:30:10;1.10;;;0.80;;
76795;SDS011;65745;50.278;18.192;2023-08-06T11:32:46;0.90;;;0.80;;
76795;SDS011;65745;50.278;18.192;2023-08-06T11:37:49;0.50;;;0.50;;
76795;SDS011;65745;50.278;18.192;2023-08-06T11:40:21;0.80;;;0.80;;
76795;SDS011;65745;50.278;18.192;2023-08-06T11:42:53;1.10;;;0.80;;
76795;SDS011;65745;50.278;18.192;2023-08-06T11:45:25;0.70;;;0.70;;
76795;SDS011;65745;50.278;18.192;2023-08-06T11:47:57;1.10;;;1.00;;
76795;SDS011;65745;50.278;18.192;2023-08-06T11:50:31;1.40;;;1.10;;
76795;SDS011;65745;50.278;18.192;2023-08-06T11:53:06;0.60;;;0.60;;
76795;SDS011;65745;50.278;18.192;2023-08-06T11:55:42;0.80;;;0.80;;
76795;SDS011;65745;50.278;18.192;2023-08-06T11:58:16;1.20;;;0.90;;
76795;SDS011;65745;50.278;18.192;2023-08-06T12:00:48;1.00;;;0.70;;
76795;SDS011;65745;50.278;18.192;2023-08-06T12:03:20;0.60;;;0.60;;
76795;SDS011;65745;50.278;18.192;2023-08-06T12:05:56;1.40;;;0.90;;
76795;SDS011;65745;50.278;18.192;2023-08-06T12:08:28;0.60;;;0.60;;
76795;SDS011;65745;50.278;18.192;2023-08-06T12:11:00;1.00;;;0.60;;
76795;SDS011;65745;50.278;18.192;2023-08-06T12:13:33;0.90;;;0.80;;
76795;SDS011;65745;50.278;18.192;2023-08-06T12:16:05;0.50;;;0.50;;
76795;SDS011;65745;50.278;18.192;2023-08-06T12:18:37;0.90;;;0.80;;
76795;SDS011;65745;50.278;18.192;2023-08-06T12:21:09;1.30;;;0.70;;
76795;SDS011;65745;50.278;18.192;2023-08-06T12:23:41;0.90;;;0.70;;
76795;SDS011;65745;50.278;18.192;2023-08-06T12:26:13;0.80;;;0.80;;
76795;SDS011;65745;50.278;18.192;2023-08-06T12:28:45;0.80;;;0.70;;
76795;SDS011;65745;50.278;18.192;2023-08-06T12:31:18;0.70;;;0.70;;
76795;SDS011;65745;50.278;18.192;2023-08-06T12:33:50;0.90;;;0.70;;
76795;SDS011;65745;50.278;18.192;2023-08-06T12:36:22;0.70;;;0.60;;
76795;SDS011;65745;50.278;18.192;2023-08-06T12:38:55;0.40;;;0.40;;
76795;SDS011;65745;50.278;18.192;2023-08-06T12:41:27;1.40;;;0.70;;
76795;SDS011;65745;50.278;18.192;2023-08-06T12:43:59;1.60;;;0.70;;
76795;SDS011;65745;50.278;18.192;2023-08-06T12:46:31;0.60;;;0.60;;
76795;SDS011;65745;50.278;18.192;2023-08-06T12:49:05;0.90;;;0.60;;
76795;SDS011;65745;50.278;18.192;2023-08-06T12:51:37;1.20;;;0.60;;
76795;SDS011;65745;50.278;18.192;2023-08-06T12:54:09;0.60;;;0.60;;
76795;SDS011;65745;50.278;18.192;2023-08-06T12:56:41;0.60;;;0.60;;
76795;SDS011;65745;50.278;18.192;2023-08-06T12:59:13;1.40;;;0.60;;
76795;SDS011;65745;50.278;18.192;2023-08-06T13:01:46;1.00;;;0.80;;
76795;SDS011;65745;50.278;18.192;2023-08-06T13:04:18;0.70;;;0.70;;
76795;SDS011;65745;50.278;18.192;2023-08-06T13:06:51;1.00;;;0.90;;
76795;SDS011;65745;50.278;18.192;2023-08-06T13:09:23;1.10;;;0.70;;
76795;SDS011;65745;50.278;18.192;2023-08-06T13:12:00;1.00;;;0.70;;
76795;SDS011;65745;50.278;18.192;2023-08-06T13:14:34;0.70;;;0.60;;
76795;SDS011;65745;50.278;18.192;2023-08-06T13:17:06;2.60;;;1.10;;
76795;SDS011;65745;50.278;18.192;2023-08-06T13:19:39;1.90;;;1.10;;
76795;SDS011;65745;50.278;18.192;2023-08-06T13:22:11;1.10;;;1.00;;
76795;SDS011;65745;50.278;18.192;2023-08-06T13:24:43;1.50;;;1.00;;
76795;SDS011;65745;50.278;18.192;2023-08-06T13:27:15;0.80;;;0.80;;
76795;SDS011;65745;50.278;18.192;2023-08-06T13:29:47;1.10;;;0.90;;
76795;SDS011;65745;50.278;18.192;2023-08-06T13:32:19;1.00;;;0.80;;
76795;SDS011;65745;50.278;18.192;2023-08-06T13:34:51;1.50;;;1.10;;
76795;SDS011;65745;50.278;18.192;2023-08-06T13:37:23;1.80;;;1.40;;
76795;SDS011;65745;50.278;18.192;2023-08-06T13:39:55;2.90;;;1.10;;
76795;SDS011;65745;50.278;18.192;2023-08-06T13:42:27;1.00;;;0.80;;
76795;SDS011;65745;50.278;18.192;2023-08-06T13:45:01;1.40;;;0.90;;
76795;SDS011;65745;50.278;18.192;2023-08-06T13:47:34;0.90;;;0.80;;
76795;SDS011;65745;50.278;18.192;2023-08-06T13:50:07;1.00;;;0.80;;
76795;SDS011;65745;50.278;18.192;2023-08-06T13:52:40;1.10;;;1.00;;
76795;SDS011;65745;50.278;18.192;2023-08-06T13:55:12;1.90;;;0.80;;
76795;SDS011;65745;50.278;18.192;2023-08-06T13:57:45;2.90;;;1.00;;
76795;SDS011;65745;50.278;18.192;2023-08-06T14:00:17;0.90;;;0.80;;
76795;SDS011;65745;50.278;18.192;2023-08-06T14:02:49;1.20;;;0.90;;
76795;SDS011;65745;50.278;18.192;2023-08-06T14:05:21;0.70;;;0.70;;
76795;SDS011;65745;50.278;18.192;2023-08-06T14:07:53;2.50;;;1.00;;
76795;SDS011;65745;50.278;18.192;2023-08-06T14:10:25;1.00;;;0.90;;
76795;SDS011;65745;50.278;18.192;2023-08-06T14:12:57;1.00;;;0.90;;
76795;SDS011;65745;50.278;18.192;2023-08-06T14:15:39;1.20;;;0.80;;
76795;SDS011;65745;50.278;18.192;2023-08-06T14:18:16;1.80;;;1.10;;
76795;SDS011;65745;50.278;18.192;2023-08-06T14:20:48;2.00;;;1.20;;
76795;SDS011;65745;50.278;18.192;2023-08-06T14:23:20;1.50;;;1.20;;
76795;SDS011;65745;50.278;18.192;2023-08-06T14:25:52;1.80;;;1.00;;
76795;SDS011;65745;50.278;18.192;2023-08-06T14:28:24;0.80;;;0.80;;
76795;SDS011;65745;50.278;18.192;2023-08-06T14:30:56;1.80;;;0.90;;
76795;SDS011;65745;50.278;18.192;2023-08-06T14:33:28;0.70;;;0.70;;
76795;SDS011;65745;50.278;18.192;2023-08-06T14:36:00;0.50;;;0.50;;
76795;SDS011;65745;50.278;18.192;2023-08-06T14:38:33;1.80;;;0.90;;
76795;SDS011;65745;50.278;18.192;2023-08-06T14:41:22;1.00;;;0.80;;
76795;SDS011;65745;50.278;18.192;2023-08-06T14:43:54;1.60;;;0.60;;
76795;SDS011;65745;50.278;18.192;2023-08-06T14:46:26;0.80;;;0.80;;
76795;SDS011;65745;50.278;18.192;2023-08-06T14:48:58;1.20;;;0.80;;
76795;SDS011;65745;50.278;18.192;2023-08-06T14:51:30;0.60;;;0.60;;
76795;SDS011;65745;50.278;18.192;2023-08-06T14:54:04;1.20;;;0.70;;
76795;SDS011;65745;50.278;18.192;2023-08-06T14:56:36;1.20;;;0.90;;
76795;SDS011;65745;50.278;18.192;2023-08-06T14:59:08;1.20;;;0.90;;
76795;SDS011;65745;50.278;18.192;2023-08-06T15:01:40;1.10;;;0.80;;
76795;SDS011;65745;50.278;18.192;2023-08-06T15:04:12;1.10;;;1.00;;
76795;SDS011;65745;50.278;18.192;2023-08-06T15:06:44;0.60;;;0.60;;
76795;SDS011;65745;50.278;18.192;2023-08-06T15:09:16;2.00;;;0.80;;